sensor_id;sensor_type;location;lat;lon;timestamp;P1;durP1;ratioP1;P2;durP2;ratioP2
36257;SDS011;22294;52.044;4.582;2023-02-23T00:03:54;72.75;;;36.72;;
36257;SDS011;22294;52.044;4.582;2023-02-23T00:06:21;73.38;;;36.47;;
36257;SDS011;22294;52.044;4.582;2023-02-23T00:08:47;74.55;;;37.60;;
36257;SDS011;22294;52.044;4.582;2023-02-23T00:11:13;75.72;;;37.90;;
36257;SDS011;22294;52.044;4.582;2023-02-23T00:13:40;80.97;;;37.80;;
36257;SDS011;22294;52.044;4.582;2023-02-23T00:16:09;72.30;;;37.17;;
36257;SDS011;22294;52.044;4.582;2023-02-23T00:18:37;75.95;;;37.85;;
36257;SDS011;22294;52.044;4.582;2023-02-23T00:21:23;79.15;;;38.28;;
36257;SDS011;22294;52.044;4.582;2023-02-23T00:23:51;74.28;;;37.72;;
36257;SDS011;22294;52.044;4.582;2023-02-23T00:26:25;79.90;;;38.72;;
36257;SDS011;22294;52.044;4.582;2023-02-23T00:28:59;75.53;;;37.65;;
36257;SDS011;22294;52.044;4.582;2023-02-23T00:31:28;70.97;;;36.85;;
36257;SDS011;22294;52.044;4.582;2023-02-23T00:33:57;83.82;;;39.72;;
36257;SDS011;22294;52.044;4.582;2023-02-23T00:36:26;79.43;;;37.78;;
36257;SDS011;22294;52.044;4.582;2023-02-23T00:38:57;74.55;;;37.42;;
36257;SDS011;22294;52.044;4.582;2023-02-23T00:41:25;78.45;;;37.60;;
36257;SDS011;22294;52.044;4.582;2023-02-23T00:43:53;80.43;;;38.88;;
36257;SDS011;22294;52.044;4.582;2023-02-23T00:46:23;75.40;;;37.35;;
36257;SDS011;22294;52.044;4.582;2023-02-23T00:48:51;79.50;;;38.03;;
36257;SDS011;22294;52.044;4.582;2023-02-23T00:51:21;72.70;;;38.17;;
36257;SDS011;22294;52.044;4.582;2023-02-23T00:53:48;74.43;;;36.78;;
36257;SDS011;22294;52.044;4.582;2023-02-23T00:56:17;81.23;;;39.43;;
36257;SDS011;22294;52.044;4.582;2023-02-23T00:58:42;75.50;;;37.67;;
36257;SDS011;22294;52.044;4.582;2023-02-23T01:01:08;77.35;;;38.95;;
36257;SDS011;22294;52.044;4.582;2023-02-23T01:03:36;79.53;;;37.88;;
36257;SDS011;22294;52.044;4.582;2023-02-23T01:06:03;77.03;;;37.45;;
36257;SDS011;22294;52.044;4.582;2023-02-23T01:08:31;78.72;;;39.45;;
36257;SDS011;22294;52.044;4.582;2023-02-23T01:10:58;79.05;;;37.72;;
36257;SDS011;22294;52.044;4.582;2023-02-23T01:13:29;79.00;;;38.88;;
36257;SDS011;22294;52.044;4.582;2023-02-23T01:15:54;77.80;;;37.88;;
36257;SDS011;22294;52.044;4.582;2023-02-23T01:18:20;78.65;;;37.97;;
36257;SDS011;22294;52.044;4.582;2023-02-23T01:20:46;78.40;;;38.15;;
36257;SDS011;22294;52.044;4.582;2023-02-23T01:23:12;78.32;;;38.08;;
36257;SDS011;22294;52.044;4.582;2023-02-23T01:25:42;75.95;;;36.47;;
36257;SDS011;22294;52.044;4.582;2023-02-23T01:28:09;76.57;;;38.00;;
36257;SDS011;22294;52.044;4.582;2023-02-23T01:30:37;75.80;;;37.50;;
36257;SDS011;22294;52.044;4.582;2023-02-23T01:33:03;76.65;;;39.92;;
36257;SDS011;22294;52.044;4.582;2023-02-23T01:35:29;79.15;;;38.20;;
36257;SDS011;22294;52.044;4.582;2023-02-23T01:37:55;70.80;;;35.92;;
36257;SDS011;22294;52.044;4.582;2023-02-23T01:40:21;79.93;;;38.83;;
36257;SDS011;22294;52.044;4.582;2023-02-23T01:45:55;71.75;;;36.83;;
36257;SDS011;22294;52.044;4.582;2023-02-23T01:51:02;75.45;;;36.88;;
36257;SDS011;22294;52.044;4.582;2023-02-23T01:53:30;81.25;;;38.85;;
36257;SDS011;22294;52.044;4.582;2023-02-23T01:55:59;78.90;;;37.70;;
36257;SDS011;22294;52.044;4.582;2023-02-23T01:58:27;79.32;;;38.95;;
36257;SDS011;22294;52.044;4.582;2023-02-23T02:00:55;76.05;;;38.75;;
36257;SDS011;22294;52.044;4.582;2023-02-23T02:03:35;76.75;;;39.78;;
36257;SDS011;22294;52.044;4.582;2023-02-23T02:06:06;73.80;;;37.00;;
36257;SDS011;22294;52.044;4.582;2023-02-23T02:08:34;80.90;;;40.22;;
36257;SDS011;22294;52.044;4.582;2023-02-23T02:11:09;80.15;;;37.15;;
36257;SDS011;22294;52.044;4.582;2023-02-23T02:13:50;79.25;;;39.53;;
36257;SDS011;22294;52.044;4.582;2023-02-23T02:28:02;75.30;;;37.63;;
36257;SDS011;22294;52.044;4.582;2023-02-23T02:44:29;74.50;;;36.45;;
36257;SDS011;22294;52.044;4.582;2023-02-23T02:47:10;83.43;;;37.58;;
36257;SDS011;22294;52.044;4.582;2023-02-23T02:49:42;76.72;;;35.80;;
36257;SDS011;22294;52.044;4.582;2023-02-23T02:52:23;72.45;;;34.38;;
36257;SDS011;22294;52.044;4.582;2023-02-23T02:54:59;80.85;;;38.80;;
36257;SDS011;22294;52.044;4.582;2023-02-23T02:57:33;71.93;;;35.47;;
36257;SDS011;22294;52.044;4.582;2023-02-23T03:00:00;74.07;;;35.67;;
36257;SDS011;22294;52.044;4.582;2023-02-23T03:02:44;75.20;;;35.33;;
36257;SDS011;22294;52.044;4.582;2023-02-23T03:05:29;77.95;;;37.63;;
36257;SDS011;22294;52.044;4.582;2023-02-23T03:11:27;74.18;;;36.30;;
36257;SDS011;22294;52.044;4.582;2023-02-23T03:14:22;75.65;;;36.40;;
36257;SDS011;22294;52.044;4.582;2023-02-23T03:17:45;76.57;;;36.45;;
36257;SDS011;22294;52.044;4.582;2023-02-23T03:26:54;80.07;;;38.20;;
36257;SDS011;22294;52.044;4.582;2023-02-23T03:36:31;82.18;;;38.08;;
36257;SDS011;22294;52.044;4.582;2023-02-23T03:39:23;82.97;;;38.70;;
36257;SDS011;22294;52.044;4.582;2023-02-23T03:42:16;82.13;;;37.00;;
36257;SDS011;22294;52.044;4.582;2023-02-23T03:45:04;78.85;;;36.25;;
36257;SDS011;22294;52.044;4.582;2023-02-23T03:47:53;81.43;;;37.55;;
36257;SDS011;22294;52.044;4.582;2023-02-23T03:50:41;83.18;;;38.65;;
36257;SDS011;22294;52.044;4.582;2023-02-23T03:53:34;79.07;;;37.28;;
36257;SDS011;22294;52.044;4.582;2023-02-23T03:56:27;82.40;;;38.45;;
36257;SDS011;22294;52.044;4.582;2023-02-23T03:59:16;80.85;;;37.90;;
36257;SDS011;22294;52.044;4.582;2023-02-23T04:02:03;86.40;;;37.42;;
36257;SDS011;22294;52.044;4.582;2023-02-23T04:04:51;83.70;;;38.60;;
36257;SDS011;22294;52.044;4.582;2023-02-23T04:07:39;81.30;;;39.60;;
36257;SDS011;22294;52.044;4.582;2023-02-23T04:10:24;79.47;;;36.33;;
36257;SDS011;22294;52.044;4.582;2023-02-23T04:13:12;77.95;;;36.45;;
36257;SDS011;22294;52.044;4.582;2023-02-23T04:18:34;79.43;;;36.95;;
36257;SDS011;22294;52.044;4.582;2023-02-23T04:21:01;76.60;;;37.25;;
36257;SDS011;22294;52.044;4.582;2023-02-23T04:23:28;75.47;;;36.53;;
36257;SDS011;22294;52.044;4.582;2023-02-23T04:25:54;81.30;;;37.03;;
36257;SDS011;22294;52.044;4.582;2023-02-23T04:28:20;76.60;;;35.08;;
36257;SDS011;22294;52.044;4.582;2023-02-23T04:30:46;85.57;;;38.80;;
36257;SDS011;22294;52.044;4.582;2023-02-23T04:33:12;81.88;;;37.80;;
36257;SDS011;22294;52.044;4.582;2023-02-23T04:35:38;83.78;;;39.10;;
36257;SDS011;22294;52.044;4.582;2023-02-23T04:38:04;83.28;;;37.80;;
36257;SDS011;22294;52.044;4.582;2023-02-23T04:40:29;82.95;;;37.67;;
36257;SDS011;22294;52.044;4.582;2023-02-23T04:42:55;88.05;;;40.35;;
36257;SDS011;22294;52.044;4.582;2023-02-23T04:45:21;81.53;;;37.33;;
36257;SDS011;22294;52.044;4.582;2023-02-23T04:47:48;82.63;;;37.60;;
36257;SDS011;22294;52.044;4.582;2023-02-23T04:50:13;82.10;;;39.05;;
36257;SDS011;22294;52.044;4.582;2023-02-23T04:52:39;91.68;;;39.50;;
36257;SDS011;22294;52.044;4.582;2023-02-23T04:55:05;89.07;;;40.47;;
36257;SDS011;22294;52.044;4.582;2023-02-23T04:57:32;84.10;;;38.42;;
36257;SDS011;22294;52.044;4.582;2023-02-23T04:59:58;81.57;;;40.03;;
36257;SDS011;22294;52.044;4.582;2023-02-23T05:02:24;87.35;;;37.28;;
36257;SDS011;22294;52.044;4.582;2023-02-23T05:04:50;83.05;;;37.67;;
36257;SDS011;22294;52.044;4.582;2023-02-23T05:07:15;85.50;;;38.30;;
36257;SDS011;22294;52.044;4.582;2023-02-23T05:09:41;84.38;;;39.88;;
36257;SDS011;22294;52.044;4.582;2023-02-23T05:12:06;76.55;;;36.22;;
36257;SDS011;22294;52.044;4.582;2023-02-23T05:14:32;78.40;;;36.92;;
36257;SDS011;22294;52.044;4.582;2023-02-23T05:16:57;84.88;;;39.88;;
36257;SDS011;22294;52.044;4.582;2023-02-23T05:19:22;88.00;;;40.28;;
36257;SDS011;22294;52.044;4.582;2023-02-23T05:21:48;81.63;;;39.72;;
36257;SDS011;22294;52.044;4.582;2023-02-23T05:24:14;78.63;;;38.05;;
36257;SDS011;22294;52.044;4.582;2023-02-23T05:26:41;80.63;;;37.75;;
36257;SDS011;22294;52.044;4.582;2023-02-23T05:29:06;85.82;;;40.47;;
36257;SDS011;22294;52.044;4.582;2023-02-23T05:31:32;84.93;;;41.10;;
36257;SDS011;22294;52.044;4.582;2023-02-23T05:33:57;80.28;;;37.30;;
36257;SDS011;22294;52.044;4.582;2023-02-23T05:36:23;79.32;;;36.75;;
36257;SDS011;22294;52.044;4.582;2023-02-23T05:38:48;77.80;;;36.92;;
36257;SDS011;22294;52.044;4.582;2023-02-23T05:41:15;78.78;;;36.05;;
36257;SDS011;22294;52.044;4.582;2023-02-23T05:43:41;78.13;;;35.70;;
36257;SDS011;22294;52.044;4.582;2023-02-23T05:46:11;82.75;;;37.33;;
36257;SDS011;22294;52.044;4.582;2023-02-23T05:48:39;79.50;;;35.45;;
36257;SDS011;22294;52.044;4.582;2023-02-23T05:51:06;76.18;;;34.35;;
36257;SDS011;22294;52.044;4.582;2023-02-23T05:53:34;74.07;;;34.53;;
36257;SDS011;22294;52.044;4.582;2023-02-23T05:56:00;76.70;;;35.97;;
36257;SDS011;22294;52.044;4.582;2023-02-23T05:58:26;83.90;;;37.05;;
36257;SDS011;22294;52.044;4.582;2023-02-23T06:00:52;82.72;;;36.25;;
36257;SDS011;22294;52.044;4.582;2023-02-23T06:03:17;82.95;;;37.28;;
36257;SDS011;22294;52.044;4.582;2023-02-23T06:05:50;83.50;;;36.10;;
36257;SDS011;22294;52.044;4.582;2023-02-23T06:08:16;82.20;;;36.22;;
36257;SDS011;22294;52.044;4.582;2023-02-23T06:10:42;77.25;;;35.10;;
36257;SDS011;22294;52.044;4.582;2023-02-23T06:13:07;84.00;;;37.63;;
36257;SDS011;22294;52.044;4.582;2023-02-23T06:15:32;82.53;;;36.88;;
36257;SDS011;22294;52.044;4.582;2023-02-23T06:17:58;78.53;;;34.58;;
36257;SDS011;22294;52.044;4.582;2023-02-23T06:20:23;78.90;;;35.33;;
36257;SDS011;22294;52.044;4.582;2023-02-23T06:22:48;92.75;;;37.15;;
36257;SDS011;22294;52.044;4.582;2023-02-23T06:25:13;85.05;;;36.47;;
36257;SDS011;22294;52.044;4.582;2023-02-23T06:27:39;83.47;;;37.22;;
36257;SDS011;22294;52.044;4.582;2023-02-23T06:30:04;87.75;;;38.13;;
36257;SDS011;22294;52.044;4.582;2023-02-23T06:32:30;84.45;;;36.35;;
36257;SDS011;22294;52.044;4.582;2023-02-23T06:34:56;83.90;;;36.10;;
36257;SDS011;22294;52.044;4.582;2023-02-23T06:37:21;82.88;;;36.80;;
36257;SDS011;22294;52.044;4.582;2023-02-23T06:39:46;78.90;;;34.97;;
36257;SDS011;22294;52.044;4.582;2023-02-23T06:42:12;74.07;;;34.15;;
36257;SDS011;22294;52.044;4.582;2023-02-23T06:44:38;77.93;;;34.97;;
36257;SDS011;22294;52.044;4.582;2023-02-23T06:47:04;76.22;;;34.03;;
36257;SDS011;22294;52.044;4.582;2023-02-23T06:49:30;78.35;;;35.60;;
36257;SDS011;22294;52.044;4.582;2023-02-23T06:51:55;77.85;;;34.10;;
36257;SDS011;22294;52.044;4.582;2023-02-23T06:54:21;82.55;;;35.47;;
36257;SDS011;22294;52.044;4.582;2023-02-23T06:56:47;81.35;;;34.80;;
36257;SDS011;22294;52.044;4.582;2023-02-23T06:59:13;81.90;;;36.00;;
36257;SDS011;22294;52.044;4.582;2023-02-23T07:01:38;84.22;;;36.55;;
36257;SDS011;22294;52.044;4.582;2023-02-23T07:04:04;76.57;;;35.42;;
36257;SDS011;22294;52.044;4.582;2023-02-23T07:06:29;85.10;;;34.80;;
36257;SDS011;22294;52.044;4.582;2023-02-23T07:08:58;73.53;;;34.13;;
36257;SDS011;22294;52.044;4.582;2023-02-23T07:11:23;72.07;;;34.08;;
36257;SDS011;22294;52.044;4.582;2023-02-23T07:13:48;77.25;;;34.50;;
36257;SDS011;22294;52.044;4.582;2023-02-23T07:16:14;77.57;;;33.65;;
36257;SDS011;22294;52.044;4.582;2023-02-23T07:18:40;75.75;;;34.58;;
36257;SDS011;22294;52.044;4.582;2023-02-23T07:21:06;77.82;;;32.90;;
36257;SDS011;22294;52.044;4.582;2023-02-23T07:23:31;73.72;;;32.85;;
36257;SDS011;22294;52.044;4.582;2023-02-23T07:25:57;72.35;;;32.67;;
36257;SDS011;22294;52.044;4.582;2023-02-23T07:28:23;84.07;;;35.28;;
36257;SDS011;22294;52.044;4.582;2023-02-23T07:30:53;74.78;;;33.33;;
36257;SDS011;22294;52.044;4.582;2023-02-23T07:33:20;77.47;;;34.72;;
36257;SDS011;22294;52.044;4.582;2023-02-23T07:35:45;87.57;;;34.72;;
36257;SDS011;22294;52.044;4.582;2023-02-23T07:38:10;73.25;;;32.50;;
36257;SDS011;22294;52.044;4.582;2023-02-23T07:40:37;69.13;;;30.63;;
36257;SDS011;22294;52.044;4.582;2023-02-23T07:43:03;73.13;;;31.60;;
36257;SDS011;22294;52.044;4.582;2023-02-23T07:45:28;65.25;;;30.13;;
36257;SDS011;22294;52.044;4.582;2023-02-23T07:47:53;63.88;;;30.75;;
36257;SDS011;22294;52.044;4.582;2023-02-23T07:50:19;65.57;;;29.52;;
36257;SDS011;22294;52.044;4.582;2023-02-23T07:52:44;68.38;;;32.10;;
36257;SDS011;22294;52.044;4.582;2023-02-23T07:55:10;73.93;;;30.45;;
36257;SDS011;22294;52.044;4.582;2023-02-23T07:57:36;70.72;;;31.58;;
36257;SDS011;22294;52.044;4.582;2023-02-23T08:00:02;70.50;;;31.20;;
36257;SDS011;22294;52.044;4.582;2023-02-23T08:02:29;72.93;;;31.95;;
36257;SDS011;22294;52.044;4.582;2023-02-23T08:04:56;65.32;;;30.42;;
36257;SDS011;22294;52.044;4.582;2023-02-23T08:07:21;75.18;;;32.40;;
36257;SDS011;22294;52.044;4.582;2023-02-23T08:09:47;74.03;;;31.67;;
36257;SDS011;22294;52.044;4.582;2023-02-23T08:12:13;67.20;;;29.95;;
36257;SDS011;22294;52.044;4.582;2023-02-23T08:14:39;65.93;;;29.10;;
36257;SDS011;22294;52.044;4.582;2023-02-23T08:17:05;70.35;;;30.42;;
36257;SDS011;22294;52.044;4.582;2023-02-23T08:19:31;72.53;;;31.25;;
36257;SDS011;22294;52.044;4.582;2023-02-23T08:21:58;62.85;;;29.23;;
36257;SDS011;22294;52.044;4.582;2023-02-23T08:24:23;71.50;;;29.98;;
36257;SDS011;22294;52.044;4.582;2023-02-23T08:26:49;69.82;;;28.80;;
36257;SDS011;22294;52.044;4.582;2023-02-23T08:29:14;64.97;;;27.73;;
36257;SDS011;22294;52.044;4.582;2023-02-23T08:31:39;64.95;;;27.85;;
36257;SDS011;22294;52.044;4.582;2023-02-23T08:34:05;57.20;;;26.65;;
36257;SDS011;22294;52.044;4.582;2023-02-23T08:36:30;64.43;;;28.55;;
36257;SDS011;22294;52.044;4.582;2023-02-23T08:38:55;61.47;;;27.70;;
36257;SDS011;22294;52.044;4.582;2023-02-23T08:41:22;61.45;;;27.58;;
36257;SDS011;22294;52.044;4.582;2023-02-23T08:43:47;61.75;;;27.20;;
36257;SDS011;22294;52.044;4.582;2023-02-23T08:46:13;53.33;;;24.60;;
36257;SDS011;22294;52.044;4.582;2023-02-23T08:48:40;51.78;;;23.60;;
36257;SDS011;22294;52.044;4.582;2023-02-23T08:51:06;56.28;;;24.48;;
36257;SDS011;22294;52.044;4.582;2023-02-23T08:53:32;50.78;;;23.10;;
36257;SDS011;22294;52.044;4.582;2023-02-23T08:55:58;49.83;;;24.92;;
36257;SDS011;22294;52.044;4.582;2023-02-23T08:58:25;44.58;;;21.30;;
36257;SDS011;22294;52.044;4.582;2023-02-23T09:00:52;43.10;;;20.67;;
36257;SDS011;22294;52.044;4.582;2023-02-23T09:03:18;45.78;;;21.05;;
36257;SDS011;22294;52.044;4.582;2023-02-23T09:05:44;36.10;;;17.98;;
36257;SDS011;22294;52.044;4.582;2023-02-23T09:08:10;35.13;;;17.60;;
36257;SDS011;22294;52.044;4.582;2023-02-23T09:10:36;35.50;;;17.02;;
36257;SDS011;22294;52.044;4.582;2023-02-23T09:13:01;34.92;;;16.35;;
36257;SDS011;22294;52.044;4.582;2023-02-23T09:15:27;33.55;;;16.95;;
36257;SDS011;22294;52.044;4.582;2023-02-23T09:17:52;30.70;;;15.05;;
36257;SDS011;22294;52.044;4.582;2023-02-23T09:20:19;31.88;;;15.60;;
36257;SDS011;22294;52.044;4.582;2023-02-23T09:22:50;27.02;;;14.00;;
36257;SDS011;22294;52.044;4.582;2023-02-23T09:25:16;31.08;;;14.75;;
36257;SDS011;22294;52.044;4.582;2023-02-23T09:27:45;30.83;;;14.10;;
36257;SDS011;22294;52.044;4.582;2023-02-23T09:30:11;27.67;;;14.23;;
36257;SDS011;22294;52.044;4.582;2023-02-23T09:32:42;27.90;;;14.27;;
36257;SDS011;22294;52.044;4.582;2023-02-23T09:35:09;27.50;;;13.82;;
36257;SDS011;22294;52.044;4.582;2023-02-23T09:37:34;27.35;;;13.35;;
36257;SDS011;22294;52.044;4.582;2023-02-23T09:39:59;24.38;;;13.32;;
36257;SDS011;22294;52.044;4.582;2023-02-23T09:50:28;30.08;;;14.27;;
36257;SDS011;22294;52.044;4.582;2023-02-23T09:52:59;28.50;;;13.65;;
36257;SDS011;22294;52.044;4.582;2023-02-23T09:55:47;28.02;;;14.73;;
36257;SDS011;22294;52.044;4.582;2023-02-23T09:58:21;26.58;;;13.63;;
36257;SDS011;22294;52.044;4.582;2023-02-23T10:00:53;22.85;;;12.23;;
36257;SDS011;22294;52.044;4.582;2023-02-23T10:07:33;23.17;;;11.98;;
36257;SDS011;22294;52.044;4.582;2023-02-23T10:23:31;23.20;;;12.68;;
36257;SDS011;22294;52.044;4.582;2023-02-23T10:26:03;23.50;;;12.70;;
36257;SDS011;22294;52.044;4.582;2023-02-23T10:28:33;25.38;;;12.27;;
36257;SDS011;22294;52.044;4.582;2023-02-23T10:31:00;28.58;;;13.63;;
36257;SDS011;22294;52.044;4.582;2023-02-23T10:33:38;24.73;;;12.70;;
36257;SDS011;22294;52.044;4.582;2023-02-23T10:36:22;23.90;;;12.77;;
36257;SDS011;22294;52.044;4.582;2023-02-23T10:38:58;25.35;;;11.85;;
36257;SDS011;22294;52.044;4.582;2023-02-23T10:41:23;22.23;;;12.43;;
36257;SDS011;22294;52.044;4.582;2023-02-23T10:43:49;24.02;;;12.38;;
36257;SDS011;22294;52.044;4.582;2023-02-23T10:46:17;21.70;;;12.95;;
36257;SDS011;22294;52.044;4.582;2023-02-23T10:48:46;23.30;;;12.00;;
36257;SDS011;22294;52.044;4.582;2023-02-23T10:51:17;24.63;;;12.00;;
36257;SDS011;22294;52.044;4.582;2023-02-23T10:53:45;22.27;;;11.48;;
36257;SDS011;22294;52.044;4.582;2023-02-23T10:56:12;23.80;;;11.45;;
36257;SDS011;22294;52.044;4.582;2023-02-23T10:58:40;22.13;;;11.57;;
36257;SDS011;22294;52.044;4.582;2023-02-23T11:01:10;23.95;;;12.18;;
36257;SDS011;22294;52.044;4.582;2023-02-23T11:03:47;21.08;;;11.57;;
36257;SDS011;22294;52.044;4.582;2023-02-23T11:06:33;24.85;;;12.35;;
36257;SDS011;22294;52.044;4.582;2023-02-23T11:09:21;24.50;;;11.63;;
36257;SDS011;22294;52.044;4.582;2023-02-23T11:12:01;25.85;;;12.63;;
36257;SDS011;22294;52.044;4.582;2023-02-23T11:14:30;23.58;;;13.23;;
36257;SDS011;22294;52.044;4.582;2023-02-23T11:16:56;22.92;;;11.75;;
36257;SDS011;22294;52.044;4.582;2023-02-23T11:22:00;27.17;;;14.50;;
36257;SDS011;22294;52.044;4.582;2023-02-23T11:24:28;24.52;;;13.05;;
36257;SDS011;22294;52.044;4.582;2023-02-23T11:26:58;28.52;;;13.35;;
36257;SDS011;22294;52.044;4.582;2023-02-23T11:29:37;32.53;;;13.90;;
36257;SDS011;22294;52.044;4.582;2023-02-23T11:37:35;29.65;;;13.77;;
36257;SDS011;22294;52.044;4.582;2023-02-23T11:40:07;28.83;;;13.95;;
36257;SDS011;22294;52.044;4.582;2023-02-23T11:42:50;27.52;;;13.95;;
36257;SDS011;22294;52.044;4.582;2023-02-23T11:45:20;28.20;;;15.20;;
36257;SDS011;22294;52.044;4.582;2023-02-23T11:47:51;29.13;;;15.43;;
36257;SDS011;22294;52.044;4.582;2023-02-23T11:50:24;33.55;;;14.75;;
36257;SDS011;22294;52.044;4.582;2023-02-23T11:52:55;33.88;;;15.90;;
36257;SDS011;22294;52.044;4.582;2023-02-23T11:55:39;34.03;;;16.23;;
36257;SDS011;22294;52.044;4.582;2023-02-23T12:01:13;35.50;;;15.95;;
36257;SDS011;22294;52.044;4.582;2023-02-23T12:03:55;37.85;;;16.95;;
36257;SDS011;22294;52.044;4.582;2023-02-23T12:06:36;39.33;;;17.20;;
36257;SDS011;22294;52.044;4.582;2023-02-23T12:09:07;45.38;;;19.67;;
36257;SDS011;22294;52.044;4.582;2023-02-23T12:11:57;42.25;;;17.80;;
36257;SDS011;22294;52.044;4.582;2023-02-23T12:14:30;43.17;;;18.40;;
36257;SDS011;22294;52.044;4.582;2023-02-23T12:17:03;40.22;;;18.58;;
36257;SDS011;22294;52.044;4.582;2023-02-23T12:19:35;40.38;;;17.63;;
36257;SDS011;22294;52.044;4.582;2023-02-23T12:22:17;38.83;;;17.40;;
36257;SDS011;22294;52.044;4.582;2023-02-23T12:24:48;35.90;;;17.10;;
36257;SDS011;22294;52.044;4.582;2023-02-23T12:27:28;42.58;;;17.75;;
36257;SDS011;22294;52.044;4.582;2023-02-23T12:35:22;38.45;;;16.02;;
36257;SDS011;22294;52.044;4.582;2023-02-23T12:40:38;36.15;;;16.60;;
36257;SDS011;22294;52.044;4.582;2023-02-23T12:51:48;41.63;;;18.83;;
36257;SDS011;22294;52.044;4.582;2023-02-23T12:54:35;38.65;;;18.70;;
36257;SDS011;22294;52.044;4.582;2023-02-23T12:59:57;40.92;;;19.38;;
36257;SDS011;22294;52.044;4.582;2023-02-23T13:02:45;36.38;;;17.30;;
36257;SDS011;22294;52.044;4.582;2023-02-23T13:08:10;34.70;;;17.70;;
36257;SDS011;22294;52.044;4.582;2023-02-23T13:16:16;31.25;;;15.98;;
36257;SDS011;22294;52.044;4.582;2023-02-23T13:18:48;36.80;;;17.05;;
36257;SDS011;22294;52.044;4.582;2023-02-23T13:21:36;38.95;;;18.38;;
36257;SDS011;22294;52.044;4.582;2023-02-23T13:24:07;34.35;;;16.13;;
36257;SDS011;22294;52.044;4.582;2023-02-23T13:29:32;37.08;;;16.92;;
36257;SDS011;22294;52.044;4.582;2023-02-23T13:32:02;41.60;;;19.52;;
36257;SDS011;22294;52.044;4.582;2023-02-23T13:34:34;48.45;;;24.63;;
36257;SDS011;22294;52.044;4.582;2023-02-23T13:37:05;47.58;;;23.00;;
36257;SDS011;22294;52.044;4.582;2023-02-23T13:42:20;43.95;;;19.77;;
36257;SDS011;22294;52.044;4.582;2023-02-23T13:53:32;34.20;;;16.83;;
36257;SDS011;22294;52.044;4.582;2023-02-23T13:56:10;35.92;;;17.40;;
36257;SDS011;22294;52.044;4.582;2023-02-23T13:58:46;32.53;;;14.93;;
36257;SDS011;22294;52.044;4.582;2023-02-23T14:01:19;25.55;;;12.70;;
36257;SDS011;22294;52.044;4.582;2023-02-23T14:03:56;27.48;;;13.43;;
36257;SDS011;22294;52.044;4.582;2023-02-23T14:06:25;29.80;;;14.25;;
36257;SDS011;22294;52.044;4.582;2023-02-23T14:08:57;31.33;;;13.13;;
36257;SDS011;22294;52.044;4.582;2023-02-23T14:11:43;28.33;;;12.38;;
36257;SDS011;22294;52.044;4.582;2023-02-23T14:14:11;27.25;;;12.85;;
36257;SDS011;22294;52.044;4.582;2023-02-23T14:19:08;25.37;;;12.10;;
36257;SDS011;22294;52.044;4.582;2023-02-23T14:21:45;27.45;;;12.50;;
36257;SDS011;22294;52.044;4.582;2023-02-23T14:24:22;40.50;;;14.03;;
36257;SDS011;22294;52.044;4.582;2023-02-23T14:32:37;28.48;;;13.20;;
36257;SDS011;22294;52.044;4.582;2023-02-23T14:38:02;32.92;;;14.32;;
36257;SDS011;22294;52.044;4.582;2023-02-23T14:40:34;32.13;;;14.68;;
36257;SDS011;22294;52.044;4.582;2023-02-23T14:43:28;32.15;;;15.57;;
36257;SDS011;22294;52.044;4.582;2023-02-23T14:45:55;35.30;;;15.38;;
36257;SDS011;22294;52.044;4.582;2023-02-23T14:48:21;29.60;;;15.05;;
36257;SDS011;22294;52.044;4.582;2023-02-23T14:50:47;29.33;;;14.38;;
36257;SDS011;22294;52.044;4.582;2023-02-23T14:53:21;26.40;;;12.80;;
36257;SDS011;22294;52.044;4.582;2023-02-23T14:55:49;25.85;;;12.48;;
36257;SDS011;22294;52.044;4.582;2023-02-23T14:58:18;25.30;;;12.70;;
36257;SDS011;22294;52.044;4.582;2023-02-23T15:00:46;14.32;;;7.80;;
36257;SDS011;22294;52.044;4.582;2023-02-23T15:03:13;12.02;;;5.22;;
36257;SDS011;22294;52.044;4.582;2023-02-23T15:05:41;13.48;;;4.60;;
36257;SDS011;22294;52.044;4.582;2023-02-23T15:08:11;13.05;;;5.15;;
36257;SDS011;22294;52.044;4.582;2023-02-23T15:10:45;13.98;;;5.60;;
36257;SDS011;22294;52.044;4.582;2023-02-23T15:13:29;13.40;;;6.75;;
36257;SDS011;22294;52.044;4.582;2023-02-23T15:15:57;13.30;;;5.38;;
36257;SDS011;22294;52.044;4.582;2023-02-23T15:18:31;12.48;;;4.22;;
36257;SDS011;22294;52.044;4.582;2023-02-23T15:21:08;8.63;;;3.05;;
36257;SDS011;22294;52.044;4.582;2023-02-23T15:23:36;9.18;;;3.05;;
36257;SDS011;22294;52.044;4.582;2023-02-23T15:26:18;10.10;;;3.03;;
36257;SDS011;22294;52.044;4.582;2023-02-23T15:29:02;10.30;;;3.50;;
36257;SDS011;22294;52.044;4.582;2023-02-23T15:31:30;12.60;;;3.60;;
36257;SDS011;22294;52.044;4.582;2023-02-23T15:33:55;13.48;;;3.47;;
36257;SDS011;22294;52.044;4.582;2023-02-23T15:36:30;14.50;;;3.15;;
36257;SDS011;22294;52.044;4.582;2023-02-23T15:38:59;16.08;;;4.30;;
36257;SDS011;22294;52.044;4.582;2023-02-23T15:43:59;9.60;;;3.25;;
36257;SDS011;22294;52.044;4.582;2023-02-23T15:46:44;11.52;;;2.80;;
36257;SDS011;22294;52.044;4.582;2023-02-23T15:49:15;17.98;;;3.33;;
36257;SDS011;22294;52.044;4.582;2023-02-23T15:51:44;17.05;;;3.40;;
36257;SDS011;22294;52.044;4.582;2023-02-23T15:56:48;15.68;;;3.53;;
36257;SDS011;22294;52.044;4.582;2023-02-23T15:59:22;14.63;;;3.30;;
36257;SDS011;22294;52.044;4.582;2023-02-23T16:01:52;23.00;;;3.53;;
36257;SDS011;22294;52.044;4.582;2023-02-23T16:04:18;18.17;;;3.22;;
36257;SDS011;22294;52.044;4.582;2023-02-23T16:06:52;16.10;;;2.97;;
36257;SDS011;22294;52.044;4.582;2023-02-23T16:11:46;19.30;;;3.67;;
36257;SDS011;22294;52.044;4.582;2023-02-23T16:14:15;24.80;;;4.00;;
36257;SDS011;22294;52.044;4.582;2023-02-23T16:16:44;19.57;;;4.33;;
36257;SDS011;22294;52.044;4.582;2023-02-23T16:19:14;19.27;;;4.57;;
36257;SDS011;22294;52.044;4.582;2023-02-23T16:21:41;22.17;;;4.10;;
36257;SDS011;22294;52.044;4.582;2023-02-23T16:24:08;25.73;;;4.43;;
36257;SDS011;22294;52.044;4.582;2023-02-23T16:26:45;19.50;;;3.33;;
36257;SDS011;22294;52.044;4.582;2023-02-23T16:29:17;29.20;;;4.35;;
36257;SDS011;22294;52.044;4.582;2023-02-23T16:31:54;22.75;;;4.68;;
36257;SDS011;22294;52.044;4.582;2023-02-23T16:34:35;21.05;;;4.00;;
36257;SDS011;22294;52.044;4.582;2023-02-23T16:37:13;30.05;;;5.25;;
36257;SDS011;22294;52.044;4.582;2023-02-23T16:39:46;23.05;;;4.10;;
36257;SDS011;22294;52.044;4.582;2023-02-23T16:44:54;28.20;;;4.35;;
36257;SDS011;22294;52.044;4.582;2023-02-23T16:49:46;30.17;;;4.93;;
36257;SDS011;22294;52.044;4.582;2023-02-23T16:52:14;35.92;;;6.68;;
36257;SDS011;22294;52.044;4.582;2023-02-23T16:54:42;35.38;;;5.13;;
36257;SDS011;22294;52.044;4.582;2023-02-23T16:57:12;24.17;;;4.60;;
36257;SDS011;22294;52.044;4.582;2023-02-23T16:59:46;33.33;;;5.55;;
36257;SDS011;22294;52.044;4.582;2023-02-23T17:02:15;35.38;;;5.60;;
36257;SDS011;22294;52.044;4.582;2023-02-23T17:04:42;37.97;;;5.32;;
36257;SDS011;22294;52.044;4.582;2023-02-23T17:07:16;36.30;;;5.43;;
36257;SDS011;22294;52.044;4.582;2023-02-23T17:09:43;39.63;;;5.20;;
36257;SDS011;22294;52.044;4.582;2023-02-23T17:12:11;40.58;;;5.82;;
36257;SDS011;22294;52.044;4.582;2023-02-23T17:14:45;34.10;;;5.72;;
36257;SDS011;22294;52.044;4.582;2023-02-23T17:17:16;32.75;;;5.25;;
36257;SDS011;22294;52.044;4.582;2023-02-23T17:19:43;31.08;;;5.30;;